sensor_id;sensor_type;location;lat;lon;timestamp;P1;durP1;ratioP1;P2;durP2;ratioP2
20456;SDS011;10387;51.102;6.848;2023-06-10T00:01:50;11.73;;;10.73;;
20456;SDS011;10387;51.102;6.848;2023-06-10T00:04:20;12.13;;;10.90;;
20456;SDS011;10387;51.102;6.848;2023-06-10T00:06:47;12.23;;;11.07;;
20456;SDS011;10387;51.102;6.848;2023-06-10T00:09:14;12.00;;;10.90;;
20456;SDS011;10387;51.102;6.848;2023-06-10T00:11:41;12.10;;;11.07;;
20456;SDS011;10387;51.102;6.848;2023-06-10T00:14:07;11.57;;;10.53;;
20456;SDS011;10387;51.102;6.848;2023-06-10T00:16:33;11.83;;;10.83;;
20456;SDS011;10387;51.102;6.848;2023-06-10T00:19:00;13.67;;;11.23;;
20456;SDS011;10387;51.102;6.848;2023-06-10T00:21:30;11.87;;;10.77;;
20456;SDS011;10387;51.102;6.848;2023-06-10T00:24:02;12.10;;;11.10;;
20456;SDS011;10387;51.102;6.848;2023-06-10T00:26:28;11.53;;;10.53;;
20456;SDS011;10387;51.102;6.848;2023-06-10T00:28:54;13.27;;;11.97;;
20456;SDS011;10387;51.102;6.848;2023-06-10T00:31:20;12.70;;;11.60;;
20456;SDS011;10387;51.102;6.848;2023-06-10T00:33:47;13.57;;;12.03;;
20456;SDS011;10387;51.102;6.848;2023-06-10T00:36:13;12.80;;;11.50;;
20456;SDS011;10387;51.102;6.848;2023-06-10T00:38:39;12.43;;;11.43;;
20456;SDS011;10387;51.102;6.848;2023-06-10T00:41:06;13.27;;;12.07;;
20456;SDS011;10387;51.102;6.848;2023-06-10T00:43:32;13.07;;;11.93;;
20456;SDS011;10387;51.102;6.848;2023-06-10T00:45:59;13.60;;;12.20;;
20456;SDS011;10387;51.102;6.848;2023-06-10T00:48:25;12.90;;;11.70;;
20456;SDS011;10387;51.102;6.848;2023-06-10T00:50:51;12.77;;;11.77;;
20456;SDS011;10387;51.102;6.848;2023-06-10T00:53:18;12.60;;;11.53;;
20456;SDS011;10387;51.102;6.848;2023-06-10T00:55:44;13.20;;;12.00;;
20456;SDS011;10387;51.102;6.848;2023-06-10T00:58:10;13.10;;;11.97;;
20456;SDS011;10387;51.102;6.848;2023-06-10T01:00:36;12.90;;;11.67;;
20456;SDS011;10387;51.102;6.848;2023-06-10T01:03:03;14.80;;;13.40;;
20456;SDS011;10387;51.102;6.848;2023-06-10T01:05:35;13.13;;;11.90;;
20456;SDS011;10387;51.102;6.848;2023-06-10T01:10:55;13.93;;;12.57;;
20456;SDS011;10387;51.102;6.848;2023-06-10T01:13:23;13.33;;;12.23;;
20456;SDS011;10387;51.102;6.848;2023-06-10T01:15:53;14.17;;;12.97;;
20456;SDS011;10387;51.102;6.848;2023-06-10T01:18:20;13.90;;;12.60;;
20456;SDS011;10387;51.102;6.848;2023-06-10T01:20:46;13.60;;;12.37;;
20456;SDS011;10387;51.102;6.848;2023-06-10T01:23:14;13.90;;;12.60;;
20456;SDS011;10387;51.102;6.848;2023-06-10T01:25:41;13.10;;;12.03;;
20456;SDS011;10387;51.102;6.848;2023-06-10T01:30:52;13.03;;;11.83;;
20456;SDS011;10387;51.102;6.848;2023-06-10T01:33:24;12.63;;;11.60;;
20456;SDS011;10387;51.102;6.848;2023-06-10T01:35:54;14.03;;;12.57;;
20456;SDS011;10387;51.102;6.848;2023-06-10T01:38:21;14.30;;;12.93;;
20456;SDS011;10387;51.102;6.848;2023-06-10T01:40:48;13.80;;;12.60;;
20456;SDS011;10387;51.102;6.848;2023-06-10T01:43:14;13.60;;;12.30;;
20456;SDS011;10387;51.102;6.848;2023-06-10T01:45:40;14.07;;;12.83;;
20456;SDS011;10387;51.102;6.848;2023-06-10T01:48:06;13.93;;;12.73;;
20456;SDS011;10387;51.102;6.848;2023-06-10T01:50:33;13.73;;;12.53;;
20456;SDS011;10387;51.102;6.848;2023-06-10T01:52:59;14.53;;;13.17;;
20456;SDS011;10387;51.102;6.848;2023-06-10T01:55:26;14.47;;;13.17;;
20456;SDS011;10387;51.102;6.848;2023-06-10T01:57:52;14.90;;;13.50;;
20456;SDS011;10387;51.102;6.848;2023-06-10T02:00:18;15.57;;;14.07;;
20456;SDS011;10387;51.102;6.848;2023-06-10T02:02:44;14.37;;;12.97;;
20456;SDS011;10387;51.102;6.848;2023-06-10T02:05:10;14.50;;;13.13;;
20456;SDS011;10387;51.102;6.848;2023-06-10T02:07:36;14.47;;;13.00;;
20456;SDS011;10387;51.102;6.848;2023-06-10T02:10:03;14.20;;;13.00;;
20456;SDS011;10387;51.102;6.848;2023-06-10T02:12:30;13.80;;;12.60;;
20456;SDS011;10387;51.102;6.848;2023-06-10T02:14:56;14.37;;;13.10;;
20456;SDS011;10387;51.102;6.848;2023-06-10T02:17:22;14.93;;;13.53;;
20456;SDS011;10387;51.102;6.848;2023-06-10T02:19:48;13.77;;;12.67;;
20456;SDS011;10387;51.102;6.848;2023-06-10T02:22:21;13.93;;;12.63;;
20456;SDS011;10387;51.102;6.848;2023-06-10T02:24:47;15.00;;;13.67;;
20456;SDS011;10387;51.102;6.848;2023-06-10T02:27:14;13.83;;;12.63;;
20456;SDS011;10387;51.102;6.848;2023-06-10T02:29:40;15.60;;;14.17;;
20456;SDS011;10387;51.102;6.848;2023-06-10T02:32:07;14.97;;;13.43;;
20456;SDS011;10387;51.102;6.848;2023-06-10T02:34:33;14.57;;;13.37;;
20456;SDS011;10387;51.102;6.848;2023-06-10T02:37:00;14.97;;;13.57;;
20456;SDS011;10387;51.102;6.848;2023-06-10T02:39:28;16.23;;;14.93;;
20456;SDS011;10387;51.102;6.848;2023-06-10T02:41:55;15.47;;;13.97;;
20456;SDS011;10387;51.102;6.848;2023-06-10T02:44:21;14.70;;;13.33;;
20456;SDS011;10387;51.102;6.848;2023-06-10T02:46:48;14.90;;;13.33;;
20456;SDS011;10387;51.102;6.848;2023-06-10T02:49:14;16.47;;;14.87;;
20456;SDS011;10387;51.102;6.848;2023-06-10T02:51:40;15.20;;;13.90;;
20456;SDS011;10387;51.102;6.848;2023-06-10T02:54:07;15.87;;;14.37;;
20456;SDS011;10387;51.102;6.848;2023-06-10T02:56:34;14.90;;;13.50;;
20456;SDS011;10387;51.102;6.848;2023-06-10T02:59:03;15.27;;;13.87;;
20456;SDS011;10387;51.102;6.848;2023-06-10T03:01:32;14.37;;;13.03;;
20456;SDS011;10387;51.102;6.848;2023-06-10T03:04:04;14.60;;;13.33;;
20456;SDS011;10387;51.102;6.848;2023-06-10T03:06:33;14.87;;;13.37;;
20456;SDS011;10387;51.102;6.848;2023-06-10T03:09:09;15.27;;;13.87;;
20456;SDS011;10387;51.102;6.848;2023-06-10T03:11:37;15.10;;;13.70;;
20456;SDS011;10387;51.102;6.848;2023-06-10T03:14:03;14.80;;;13.47;;
20456;SDS011;10387;51.102;6.848;2023-06-10T03:16:30;15.00;;;13.50;;
20456;SDS011;10387;51.102;6.848;2023-06-10T03:18:58;15.07;;;13.70;;
20456;SDS011;10387;51.102;6.848;2023-06-10T03:21:24;15.60;;;14.10;;
20456;SDS011;10387;51.102;6.848;2023-06-10T03:23:53;15.33;;;13.83;;
20456;SDS011;10387;51.102;6.848;2023-06-10T03:26:20;15.60;;;14.10;;
20456;SDS011;10387;51.102;6.848;2023-06-10T03:28:47;16.10;;;14.50;;
20456;SDS011;10387;51.102;6.848;2023-06-10T03:31:14;16.27;;;14.77;;
20456;SDS011;10387;51.102;6.848;2023-06-10T03:33:42;15.80;;;14.40;;
20456;SDS011;10387;51.102;6.848;2023-06-10T03:36:08;16.57;;;14.93;;
20456;SDS011;10387;51.102;6.848;2023-06-10T03:38:35;15.83;;;14.43;;
20456;SDS011;10387;51.102;6.848;2023-06-10T03:41:04;16.70;;;15.23;;
20456;SDS011;10387;51.102;6.848;2023-06-10T03:43:31;17.27;;;15.43;;
20456;SDS011;10387;51.102;6.848;2023-06-10T03:45:57;15.83;;;14.23;;
20456;SDS011;10387;51.102;6.848;2023-06-10T03:48:23;16.33;;;14.83;;
20456;SDS011;10387;51.102;6.848;2023-06-10T03:50:51;16.83;;;15.37;;
20456;SDS011;10387;51.102;6.848;2023-06-10T03:53:19;17.00;;;15.40;;
20456;SDS011;10387;51.102;6.848;2023-06-10T03:55:46;17.30;;;15.70;;
20456;SDS011;10387;51.102;6.848;2023-06-10T03:58:14;16.50;;;14.97;;
20456;SDS011;10387;51.102;6.848;2023-06-10T04:00:41;16.37;;;14.93;;
20456;SDS011;10387;51.102;6.848;2023-06-10T04:03:08;16.20;;;14.80;;
20456;SDS011;10387;51.102;6.848;2023-06-10T04:05:42;15.70;;;14.30;;
20456;SDS011;10387;51.102;6.848;2023-06-10T04:08:08;17.93;;;16.23;;
20456;SDS011;10387;51.102;6.848;2023-06-10T04:10:35;17.33;;;15.70;;
20456;SDS011;10387;51.102;6.848;2023-06-10T04:13:01;16.20;;;14.80;;
20456;SDS011;10387;51.102;6.848;2023-06-10T04:15:32;17.70;;;16.00;;
20456;SDS011;10387;51.102;6.848;2023-06-10T04:18:00;18.67;;;16.87;;
20456;SDS011;10387;51.102;6.848;2023-06-10T04:20:26;18.10;;;16.40;;
20456;SDS011;10387;51.102;6.848;2023-06-10T04:22:53;16.53;;;15.03;;
20456;SDS011;10387;51.102;6.848;2023-06-10T04:25:19;17.23;;;15.63;;
20456;SDS011;10387;51.102;6.848;2023-06-10T04:27:47;17.60;;;16.00;;
20456;SDS011;10387;51.102;6.848;2023-06-10T04:30:14;17.93;;;16.33;;
20456;SDS011;10387;51.102;6.848;2023-06-10T04:32:41;16.57;;;14.97;;
20456;SDS011;10387;51.102;6.848;2023-06-10T04:35:12;17.30;;;15.80;;
20456;SDS011;10387;51.102;6.848;2023-06-10T04:37:39;18.33;;;16.73;;
20456;SDS011;10387;51.102;6.848;2023-06-10T04:40:06;17.10;;;15.40;;
20456;SDS011;10387;51.102;6.848;2023-06-10T04:42:33;16.73;;;15.10;;
20456;SDS011;10387;51.102;6.848;2023-06-10T04:44:59;16.73;;;15.20;;
20456;SDS011;10387;51.102;6.848;2023-06-10T04:47:26;19.10;;;17.30;;
20456;SDS011;10387;51.102;6.848;2023-06-10T04:49:53;17.23;;;15.63;;
20456;SDS011;10387;51.102;6.848;2023-06-10T04:52:21;18.67;;;16.70;;
20456;SDS011;10387;51.102;6.848;2023-06-10T04:54:48;18.70;;;17.00;;
20456;SDS011;10387;51.102;6.848;2023-06-10T04:57:14;18.50;;;16.70;;
20456;SDS011;10387;51.102;6.848;2023-06-10T04:59:40;17.93;;;16.17;;
20456;SDS011;10387;51.102;6.848;2023-06-10T05:02:06;18.70;;;16.97;;
20456;SDS011;10387;51.102;6.848;2023-06-10T05:04:32;19.03;;;17.23;;
20456;SDS011;10387;51.102;6.848;2023-06-10T05:06:58;19.43;;;17.53;;
20456;SDS011;10387;51.102;6.848;2023-06-10T05:09:24;18.63;;;16.83;;
20456;SDS011;10387;51.102;6.848;2023-06-10T05:11:51;18.67;;;16.87;;
20456;SDS011;10387;51.102;6.848;2023-06-10T05:14:18;17.90;;;16.23;;
20456;SDS011;10387;51.102;6.848;2023-06-10T05:16:46;18.80;;;17.00;;
20456;SDS011;10387;51.102;6.848;2023-06-10T05:19:12;18.60;;;16.90;;
20456;SDS011;10387;51.102;6.848;2023-06-10T05:21:38;18.53;;;16.73;;
20456;SDS011;10387;51.102;6.848;2023-06-10T05:24:04;19.10;;;17.30;;
20456;SDS011;10387;51.102;6.848;2023-06-10T05:26:31;18.60;;;16.80;;
20456;SDS011;10387;51.102;6.848;2023-06-10T05:28:58;18.27;;;16.57;;
20456;SDS011;10387;51.102;6.848;2023-06-10T05:31:24;19.93;;;17.90;;
20456;SDS011;10387;51.102;6.848;2023-06-10T05:33:50;19.60;;;17.50;;
20456;SDS011;10387;51.102;6.848;2023-06-10T05:36:16;18.93;;;17.10;;
20456;SDS011;10387;51.102;6.848;2023-06-10T05:38:42;18.93;;;17.13;;
20456;SDS011;10387;51.102;6.848;2023-06-10T05:41:08;18.10;;;16.27;;
20456;SDS011;10387;51.102;6.848;2023-06-10T05:43:35;17.20;;;15.70;;
20456;SDS011;10387;51.102;6.848;2023-06-10T05:46:01;17.27;;;15.67;;
20456;SDS011;10387;51.102;6.848;2023-06-10T05:48:27;17.93;;;16.13;;
20456;SDS011;10387;51.102;6.848;2023-06-10T05:50:53;17.43;;;15.70;;
20456;SDS011;10387;51.102;6.848;2023-06-10T05:53:19;16.23;;;14.63;;
20456;SDS011;10387;51.102;6.848;2023-06-10T05:55:46;16.77;;;14.60;;
20456;SDS011;10387;51.102;6.848;2023-06-10T05:58:12;16.53;;;14.93;;
20456;SDS011;10387;51.102;6.848;2023-06-10T06:00:41;19.20;;;13.80;;
20456;SDS011;10387;51.102;6.848;2023-06-10T06:03:07;15.93;;;14.33;;
20456;SDS011;10387;51.102;6.848;2023-06-10T06:05:33;14.47;;;13.07;;
20456;SDS011;10387;51.102;6.848;2023-06-10T06:08:03;13.33;;;12.10;;
20456;SDS011;10387;51.102;6.848;2023-06-10T06:10:30;14.17;;;12.77;;
20456;SDS011;10387;51.102;6.848;2023-06-10T06:12:56;13.03;;;11.73;;
20456;SDS011;10387;51.102;6.848;2023-06-10T06:15:22;14.10;;;12.60;;
20456;SDS011;10387;51.102;6.848;2023-06-10T06:17:48;12.17;;;10.93;;
20456;SDS011;10387;51.102;6.848;2023-06-10T06:20:18;12.23;;;10.97;;
20456;SDS011;10387;51.102;6.848;2023-06-10T06:22:44;11.90;;;10.77;;
20456;SDS011;10387;51.102;6.848;2023-06-10T06:25:10;15.10;;;11.50;;
20456;SDS011;10387;51.102;6.848;2023-06-10T06:27:36;13.40;;;12.07;;
20456;SDS011;10387;51.102;6.848;2023-06-10T06:30:02;13.13;;;11.60;;
20456;SDS011;10387;51.102;6.848;2023-06-10T06:32:28;11.03;;;9.97;;
20456;SDS011;10387;51.102;6.848;2023-06-10T06:34:54;11.87;;;10.67;;
20456;SDS011;10387;51.102;6.848;2023-06-10T06:37:24;11.07;;;10.07;;
20456;SDS011;10387;51.102;6.848;2023-06-10T06:39:57;11.33;;;10.23;;
20456;SDS011;10387;51.102;6.848;2023-06-10T06:42:24;10.47;;;9.47;;
20456;SDS011;10387;51.102;6.848;2023-06-10T06:45:01;11.03;;;10.03;;
20456;SDS011;10387;51.102;6.848;2023-06-10T06:47:27;10.83;;;9.83;;
20456;SDS011;10387;51.102;6.848;2023-06-10T06:49:53;10.33;;;9.33;;
20456;SDS011;10387;51.102;6.848;2023-06-10T06:52:19;10.67;;;9.67;;
20456;SDS011;10387;51.102;6.848;2023-06-10T06:54:47;9.67;;;8.87;;
20456;SDS011;10387;51.102;6.848;2023-06-10T06:57:13;9.87;;;9.07;;
20456;SDS011;10387;51.102;6.848;2023-06-10T06:59:40;10.33;;;9.37;;
20456;SDS011;10387;51.102;6.848;2023-06-10T07:02:06;9.83;;;8.83;;
20456;SDS011;10387;51.102;6.848;2023-06-10T07:04:32;9.57;;;8.77;;
20456;SDS011;10387;51.102;6.848;2023-06-10T07:06:58;11.67;;;9.23;;
20456;SDS011;10387;51.102;6.848;2023-06-10T07:09:25;9.43;;;8.60;;
20456;SDS011;10387;51.102;6.848;2023-06-10T07:11:51;10.17;;;9.20;;
20456;SDS011;10387;51.102;6.848;2023-06-10T07:14:17;9.00;;;8.27;;
20456;SDS011;10387;51.102;6.848;2023-06-10T07:16:43;9.30;;;8.40;;
20456;SDS011;10387;51.102;6.848;2023-06-10T07:19:10;10.43;;;9.07;;
20456;SDS011;10387;51.102;6.848;2023-06-10T07:21:36;9.50;;;8.70;;
20456;SDS011;10387;51.102;6.848;2023-06-10T07:24:03;9.02;;;8.25;;
20456;SDS011;10387;51.102;6.848;2023-06-10T07:26:29;10.90;;;8.80;;
20456;SDS011;10387;51.102;6.848;2023-06-10T07:28:55;10.40;;;8.90;;
20456;SDS011;10387;51.102;6.848;2023-06-10T07:31:21;9.68;;;8.88;;
20456;SDS011;10387;51.102;6.848;2023-06-10T07:33:47;9.38;;;8.57;;
20456;SDS011;10387;51.102;6.848;2023-06-10T07:36:13;9.55;;;8.68;;
20456;SDS011;10387;51.102;6.848;2023-06-10T07:38:39;9.70;;;8.65;;
20456;SDS011;10387;51.102;6.848;2023-06-10T07:41:07;9.38;;;8.57;;
20456;SDS011;10387;51.102;6.848;2023-06-10T07:43:33;9.88;;;8.98;;
20456;SDS011;10387;51.102;6.848;2023-06-10T07:45:59;9.55;;;8.75;;
20456;SDS011;10387;51.102;6.848;2023-06-10T07:48:26;9.18;;;8.38;;
20456;SDS011;10387;51.102;6.848;2023-06-10T07:50:52;9.60;;;8.60;;
20456;SDS011;10387;51.102;6.848;2023-06-10T07:53:18;9.15;;;8.32;;
20456;SDS011;10387;51.102;6.848;2023-06-10T07:55:44;9.52;;;8.73;;
20456;SDS011;10387;51.102;6.848;2023-06-10T07:58:10;9.73;;;8.82;;
20456;SDS011;10387;51.102;6.848;2023-06-10T08:00:36;10.75;;;9.75;;
20456;SDS011;10387;51.102;6.848;2023-06-10T08:03:02;9.57;;;8.77;;
20456;SDS011;10387;51.102;6.848;2023-06-10T08:05:28;10.45;;;9.50;;
20456;SDS011;10387;51.102;6.848;2023-06-10T08:07:55;9.70;;;8.90;;
20456;SDS011;10387;51.102;6.848;2023-06-10T08:10:21;9.82;;;8.88;;
20456;SDS011;10387;51.102;6.848;2023-06-10T08:12:47;11.05;;;9.10;;
20456;SDS011;10387;51.102;6.848;2023-06-10T08:15:13;10.20;;;9.20;;
20456;SDS011;10387;51.102;6.848;2023-06-10T08:17:39;9.90;;;8.95;;
20456;SDS011;10387;51.102;6.848;2023-06-10T08:20:06;10.18;;;9.35;;
20456;SDS011;10387;51.102;6.848;2023-06-10T08:22:32;9.43;;;8.55;;
20456;SDS011;10387;51.102;6.848;2023-06-10T08:24:58;9.82;;;8.93;;
20456;SDS011;10387;51.102;6.848;2023-06-10T08:27:24;10.00;;;8.98;;
20456;SDS011;10387;51.102;6.848;2023-06-10T08:29:50;9.85;;;8.95;;
20456;SDS011;10387;51.102;6.848;2023-06-10T08:32:16;10.57;;;9.68;;
20456;SDS011;10387;51.102;6.848;2023-06-10T08:34:43;11.15;;;9.93;;
20456;SDS011;10387;51.102;6.848;2023-06-10T08:37:09;10.48;;;9.38;;
20456;SDS011;10387;51.102;6.848;2023-06-10T08:39:35;10.35;;;9.15;;
20456;SDS011;10387;51.102;6.848;2023-06-10T08:42:10;9.68;;;8.82;;
20456;SDS011;10387;51.102;6.848;2023-06-10T08:44:37;10.00;;;9.10;;
20456;SDS011;10387;51.102;6.848;2023-06-10T08:47:06;9.70;;;8.90;;
20456;SDS011;10387;51.102;6.848;2023-06-10T08:49:34;12.30;;;9.70;;
20456;SDS011;10387;51.102;6.848;2023-06-10T08:52:03;10.13;;;9.07;;
20456;SDS011;10387;51.102;6.848;2023-06-10T08:54:32;10.65;;;9.65;;
20456;SDS011;10387;51.102;6.848;2023-06-10T08:57:03;10.35;;;9.32;;
20456;SDS011;10387;51.102;6.848;2023-06-10T08:59:30;10.50;;;9.60;;
20456;SDS011;10387;51.102;6.848;2023-06-10T09:01:57;13.20;;;9.73;;
20456;SDS011;10387;51.102;6.848;2023-06-10T09:04:24;10.55;;;9.55;;
20456;SDS011;10387;51.102;6.848;2023-06-10T09:06:50;9.80;;;8.98;;
20456;SDS011;10387;51.102;6.848;2023-06-10T09:09:17;10.68;;;9.68;;
20456;SDS011;10387;51.102;6.848;2023-06-10T09:11:44;10.75;;;9.63;;
20456;SDS011;10387;51.102;6.848;2023-06-10T09:14:10;10.48;;;9.57;;
20456;SDS011;10387;51.102;6.848;2023-06-10T09:16:38;10.30;;;9.50;;
20456;SDS011;10387;51.102;6.848;2023-06-10T09:19:04;10.18;;;9.18;;
20456;SDS011;10387;51.102;6.848;2023-06-10T09:21:33;11.32;;;9.75;;
20456;SDS011;10387;51.102;6.848;2023-06-10T09:24:01;10.32;;;9.30;;
20456;SDS011;10387;51.102;6.848;2023-06-10T09:26:29;11.18;;;9.95;;
20456;SDS011;10387;51.102;6.848;2023-06-10T09:29:05;13.80;;;10.20;;
20456;SDS011;10387;51.102;6.848;2023-06-10T09:31:31;11.18;;;9.93;;
20456;SDS011;10387;51.102;6.848;2023-06-10T09:34:07;10.73;;;9.73;;
20456;SDS011;10387;51.102;6.848;2023-06-10T09:36:34;11.75;;;10.15;;
20456;SDS011;10387;51.102;6.848;2023-06-10T09:39:02;10.95;;;9.95;;
20456;SDS011;10387;51.102;6.848;2023-06-10T09:41:36;12.68;;;10.00;;
20456;SDS011;10387;51.102;6.848;2023-06-10T09:44:18;11.52;;;10.40;;
20456;SDS011;10387;51.102;6.848;2023-06-10T09:46:45;11.05;;;9.93;;
20456;SDS011;10387;51.102;6.848;2023-06-10T09:49:12;11.05;;;9.90;;
20456;SDS011;10387;51.102;6.848;2023-06-10T09:51:48;11.32;;;10.35;;
20456;SDS011;10387;51.102;6.848;2023-06-10T09:54:15;10.70;;;9.90;;
20456;SDS011;10387;51.102;6.848;2023-06-10T09:56:42;11.63;;;10.02;;
20456;SDS011;10387;51.102;6.848;2023-06-10T09:59:09;11.18;;;10.25;;
20456;SDS011;10387;51.102;6.848;2023-06-10T10:01:35;14.52;;;10.80;;
20456;SDS011;10387;51.102;6.848;2023-06-10T10:04:02;11.05;;;10.13;;
20456;SDS011;10387;51.102;6.848;2023-06-10T10:06:29;11.70;;;10.50;;
20456;SDS011;10387;51.102;6.848;2023-06-10T10:08:56;10.63;;;9.68;;
20456;SDS011;10387;51.102;6.848;2023-06-10T10:11:23;11.77;;;10.77;;
20456;SDS011;10387;51.102;6.848;2023-06-10T10:13:51;11.52;;;10.52;;
20456;SDS011;10387;51.102;6.848;2023-06-10T10:16:21;11.73;;;10.68;;
20456;SDS011;10387;51.102;6.848;2023-06-10T10:18:55;11.95;;;10.95;;
20456;SDS011;10387;51.102;6.848;2023-06-10T10:21:23;11.00;;;10.10;;
20456;SDS011;10387;51.102;6.848;2023-06-10T10:23:53;11.35;;;10.35;;
20456;SDS011;10387;51.102;6.848;2023-06-10T10:26:25;11.88;;;10.65;;
20456;SDS011;10387;51.102;6.848;2023-06-10T10:28:54;11.98;;;10.98;;
20456;SDS011;10387;51.102;6.848;2023-06-10T10:31:23;11.13;;;10.13;;
20456;SDS011;10387;51.102;6.848;2023-06-10T10:33:59;11.93;;;10.82;;
20456;SDS011;10387;51.102;6.848;2023-06-10T10:36:25;12.50;;;11.20;;
20456;SDS011;10387;51.102;6.848;2023-06-10T10:38:53;11.93;;;10.80;;
20456;SDS011;10387;51.102;6.848;2023-06-10T10:41:20;10.98;;;9.90;;
20456;SDS011;10387;51.102;6.848;2023-06-10T10:43:47;12.63;;;11.43;;
20456;SDS011;10387;51.102;6.848;2023-06-10T10:46:14;13.38;;;10.75;;
20456;SDS011;10387;51.102;6.848;2023-06-10T10:48:41;15.57;;;10.82;;
20456;SDS011;10387;51.102;6.848;2023-06-10T10:51:08;12.00;;;10.90;;
20456;SDS011;10387;51.102;6.848;2023-06-10T10:53:38;11.48;;;10.35;;
20456;SDS011;10387;51.102;6.848;2023-06-10T10:56:08;10.85;;;9.88;;
20456;SDS011;10387;51.102;6.848;2023-06-10T10:58:34;11.43;;;10.43;;
20456;SDS011;10387;51.102;6.848;2023-06-10T11:01:09;11.23;;;10.23;;
20456;SDS011;10387;51.102;6.848;2023-06-10T11:03:41;11.70;;;10.55;;
20456;SDS011;10387;51.102;6.848;2023-06-10T11:06:16;16.67;;;11.05;;
20456;SDS011;10387;51.102;6.848;2023-06-10T11:16:39;10.82;;;9.82;;
20456;SDS011;10387;51.102;6.848;2023-06-10T11:19:07;10.13;;;9.32;;
20456;SDS011;10387;51.102;6.848;2023-06-10T11:21:37;10.77;;;9.80;;
20456;SDS011;10387;51.102;6.848;2023-06-10T11:24:14;11.32;;;10.07;;
20456;SDS011;10387;51.102;6.848;2023-06-10T11:26:43;10.70;;;9.68;;
20456;SDS011;10387;51.102;6.848;2023-06-10T11:29:10;10.40;;;9.50;;
20456;SDS011;10387;51.102;6.848;2023-06-10T11:31:40;10.30;;;9.40;;
20456;SDS011;10387;51.102;6.848;2023-06-10T11:34:07;10.20;;;9.20;;
20456;SDS011;10387;51.102;6.848;2023-06-10T11:36:34;10.20;;;9.30;;
20456;SDS011;10387;51.102;6.848;2023-06-10T11:39:03;11.38;;;10.27;;
20456;SDS011;10387;51.102;6.848;2023-06-10T11:41:29;9.98;;;9.15;;
20456;SDS011;10387;51.102;6.848;2023-06-10T11:43:56;9.90;;;9.07;;
20456;SDS011;10387;51.102;6.848;2023-06-10T11:46:22;10.50;;;9.57;;
20456;SDS011;10387;51.102;6.848;2023-06-10T11:48:52;10.43;;;9.52;;
20456;SDS011;10387;51.102;6.848;2023-06-10T11:51:19;11.10;;;10.10;;
20456;SDS011;10387;51.102;6.848;2023-06-10T11:53:48;10.70;;;9.70;;
20456;SDS011;10387;51.102;6.848;2023-06-10T11:56:27;10.95;;;9.98;;
20456;SDS011;10387;51.102;6.848;2023-06-10T11:58:54;10.75;;;9.75;;
20456;SDS011;10387;51.102;6.848;2023-06-10T12:01:22;10.40;;;9.50;;
20456;SDS011;10387;51.102;6.848;2023-06-10T12:03:56;10.77;;;9.82;;
20456;SDS011;10387;51.102;6.848;2023-06-10T12:06:22;10.70;;;9.90;;
20456;SDS011;10387;51.102;6.848;2023-06-10T12:08:48;10.35;;;9.52;;
20456;SDS011;10387;51.102;6.848;2023-06-10T12:11:14;10.68;;;9.77;;
20456;SDS011;10387;51.102;6.848;2023-06-10T12:13:47;11.25;;;10.25;;
20456;SDS011;10387;51.102;6.848;2023-06-10T12:16:16;10.38;;;9.57;;
20456;SDS011;10387;51.102;6.848;2023-06-10T12:18:43;9.85;;;9.05;;
20456;SDS011;10387;51.102;6.848;2023-06-10T12:21:17;9.90;;;9.00;;
20456;SDS011;10387;51.102;6.848;2023-06-10T12:24:00;9.48;;;8.57;;
20456;SDS011;10387;51.102;6.848;2023-06-10T12:26:35;10.50;;;9.70;;
20456;SDS011;10387;51.102;6.848;2023-06-10T12:29:24;10.07;;;9.18;;
20456;SDS011;10387;51.102;6.848;2023-06-10T12:32:00;9.73;;;8.80;;
20456;SDS011;10387;51.102;6.848;2023-06-10T12:34:28;10.15;;;9.35;;
20456;SDS011;10387;51.102;6.848;2023-06-10T12:36:54;9.93;;;9.13;;
20456;SDS011;10387;51.102;6.848;2023-06-10T12:39:21;10.65;;;9.60;;
20456;SDS011;10387;51.102;6.848;2023-06-10T12:41:47;10.18;;;9.27;;
20456;SDS011;10387;51.102;6.848;2023-06-10T12:44:14;9.73;;;8.93;;
20456;SDS011;10387;51.102;6.848;2023-06-10T12:46:40;9.75;;;8.95;;
20456;SDS011;10387;51.102;6.848;2023-06-10T12:49:07;9.70;;;8.90;;
20456;SDS011;10387;51.102;6.848;2023-06-10T12:51:33;10.75;;;9.65;;
20456;SDS011;10387;51.102;6.848;2023-06-10T12:54:00;9.95;;;9.05;;
20456;SDS011;10387;51.102;6.848;2023-06-10T12:56:26;10.95;;;9.95;;
20456;SDS011;10387;51.102;6.848;2023-06-10T12:58:52;10.77;;;9.88;;
20456;SDS011;10387;51.102;6.848;2023-06-10T13:01:18;10.70;;;9.73;;
20456;SDS011;10387;51.102;6.848;2023-06-10T13:03:44;10.45;;;9.45;;
20456;SDS011;10387;51.102;6.848;2023-06-10T13:06:10;10.00;;;9.20;;
20456;SDS011;10387;51.102;6.848;2023-06-10T13:08:37;10.32;;;9.32;;
20456;SDS011;10387;51.102;6.848;2023-06-10T13:11:03;10.55;;;9.65;;
20456;SDS011;10387;51.102;6.848;2023-06-10T13:13:29;9.52;;;8.73;;
20456;SDS011;10387;51.102;6.848;2023-06-10T13:15:55;10.15;;;9.25;;
20456;SDS011;10387;51.102;6.848;2023-06-10T13:18:21;10.20;;;9.30;;
20456;SDS011;10387;51.102;6.848;2023-06-10T13:20:47;9.95;;;9.05;;
20456;SDS011;10387;51.102;6.848;2023-06-10T13:23:13;10.55;;;9.55;;
20456;SDS011;10387;51.102;6.848;2023-06-10T13:25:40;9.93;;;9.02;;
20456;SDS011;10387;51.102;6.848;2023-06-10T13:28:09;8.95;;;8.18;;
20456;SDS011;10387;51.102;6.848;2023-06-10T13:30:36;9.32;;;8.52;;
20456;SDS011;10387;51.102;6.848;2023-06-10T13:33:02;10.30;;;9.43;;
20456;SDS011;10387;51.102;6.848;2023-06-10T13:35:28;9.85;;;9.02;;
20456;SDS011;10387;51.102;6.848;2023-06-10T13:37:54;9.93;;;9.02;;
20456;SDS011;10387;51.102;6.848;2023-06-10T13:40:20;9.88;;;8.98;;
20456;SDS011;10387;51.102;6.848;2023-06-10T13:42:47;9.80;;;8.90;;
20456;SDS011;10387;51.102;6.848;2023-06-10T13:45:15;9.23;;;8.43;;
20456;SDS011;10387;51.102;6.848;2023-06-10T13:47:42;9.70;;;8.82;;
20456;SDS011;10387;51.102;6.848;2023-06-10T13:50:09;8.90;;;8.25;;
20456;SDS011;10387;51.102;6.848;2023-06-10T13:52:35;9.15;;;8.35;;
20456;SDS011;10387;51.102;6.848;2023-06-10T13:55:01;9.93;;;9.13;;
20456;SDS011;10387;51.102;6.848;2023-06-10T13:57:27;9.45;;;8.70;;
20456;SDS011;10387;51.102;6.848;2023-06-10T13:59:53;9.35;;;8.55;;
20456;SDS011;10387;51.102;6.848;2023-06-10T14:02:21;9.50;;;8.70;;
20456;SDS011;10387;51.102;6.848;2023-06-10T14:04:47;9.68;;;8.88;;
20456;SDS011;10387;51.102;6.848;2023-06-10T14:07:13;10.40;;;9.45;;
20456;SDS011;10387;51.102;6.848;2023-06-10T14:09:39;9.20;;;8.40;;
20456;SDS011;10387;51.102;6.848;2023-06-10T14:12:05;9.60;;;8.80;;
20456;SDS011;10387;51.102;6.848;2023-06-10T14:14:31;9.88;;;9.00;;
20456;SDS011;10387;51.102;6.848;2023-06-10T14:16:58;9.82;;;9.02;;
20456;SDS011;10387;51.102;6.848;2023-06-10T14:19:24;9.93;;;9.02;;
20456;SDS011;10387;51.102;6.848;2023-06-10T14:21:51;9.70;;;8.80;;
20456;SDS011;10387;51.102;6.848;2023-06-10T14:24:18;9.40;;;8.52;;
20456;SDS011;10387;51.102;6.848;2023-06-10T14:26:44;10.75;;;9.65;;
20456;SDS011;10387;51.102;6.848;2023-06-10T14:29:10;10.30;;;9.30;;
20456;SDS011;10387;51.102;6.848;2023-06-10T14:31:39;9.88;;;8.88;;
20456;SDS011;10387;51.102;6.848;2023-06-10T14:34:05;10.10;;;9.20;;
20456;SDS011;10387;51.102;6.848;2023-06-10T14:36:33;8.95;;;8.07;;
20456;SDS011;10387;51.102;6.848;2023-06-10T14:39:00;9.70;;;8.80;;
20456;SDS011;10387;51.102;6.848;2023-06-10T14:41:25;9.20;;;8.50;;
20456;SDS011;10387;51.102;6.848;2023-06-10T14:43:52;9.18;;;8.43;;
20456;SDS011;10387;51.102;6.848;2023-06-10T14:46:18;10.02;;;9.02;;